ELVIS1 weather

Elvis1 Field
Griffithville, Arkansas, United States

Public forecast

Using degrees Fahrenheit for public forecast. Weather courtesy of forecast.io.

METAR (pilot weather report)

Closest report is Searcy Municipal Airport, 4.4 nm (8.2 km) W. Retrieved 2019/07/21 02:56 UTC (30 minutes ago):

KSRC 210256Z AUTO 20003KT 10SM CLR 27/26 A2992 RMK AO2 SLP132 T02720256 50002

TAF (pilot weather forecast)

Closest forecast is Little Rock Air Force Base, 30.6 nm (56.6 km) SW. Retrieved 2019/07/20 23:03 UTC (4 hours ago):

TAF TAF KLRF 202300Z 2023/2205 VRB06KT 9999 SCT045 QNH2989INS TX36/2023Z TN25/2111Z